createdAt,value
2018-01-15T00:01:51.464Z,-1.60
2018-01-15T00:04:19.007Z,-1.70
2018-01-15T00:06:46.565Z,-1.70
2018-01-15T00:09:14.095Z,-1.80
2018-01-15T00:11:42.423Z,-1.80
2018-01-15T00:14:09.966Z,-1.90
2018-01-15T00:16:37.514Z,-1.80
2018-01-15T00:19:05.082Z,-1.80
2018-01-15T00:21:32.629Z,-1.80
2018-01-15T00:24:00.205Z,-1.80
2018-01-15T00:26:27.746Z,-1.80
2018-01-15T00:28:56.110Z,-1.80
2018-01-15T00:31:24.426Z,-1.90
2018-01-15T00:33:51.991Z,-1.90
2018-01-15T00:36:19.539Z,-1.90
2018-01-15T00:38:47.098Z,-2.00
2018-01-15T00:41:14.646Z,-2.00
2018-01-15T00:43:42.974Z,-2.10
2018-01-15T00:46:10.511Z,-2.10
2018-01-15T00:48:38.122Z,-2.00
2018-01-15T00:51:05.656Z,-2.00
2018-01-15T00:53:33.209Z,-2.00
2018-01-15T00:56:01.517Z,-2.00
2018-01-15T00:58:29.849Z,-2.00
2018-01-15T01:00:57.385Z,-2.10
2018-01-15T01:03:24.950Z,-2.00
2018-01-15T01:05:52.501Z,-2.10
2018-01-15T01:08:20.068Z,-2.10
2018-01-15T01:10:47.658Z,-2.10
2018-01-15T01:13:15.222Z,-2.10
2018-01-15T01:15:42.766Z,-2.10
2018-01-15T01:18:10.537Z,-2.00
2018-01-15T01:20:38.074Z,-1.90
2018-01-15T01:23:05.611Z,-1.80
2018-01-15T01:25:33.924Z,-1.50
2018-01-15T01:28:01.466Z,-1.60
2018-01-15T01:30:29.030Z,-1.50
2018-01-15T01:32:56.574Z,-1.40
2018-01-15T01:35:24.916Z,-1.40
2018-01-15T01:37:52.444Z,-1.40
2018-01-15T01:40:20.010Z,-1.30
2018-01-15T01:42:47.568Z,-1.20
2018-01-15T01:45:15.126Z,-1.20
2018-01-15T01:47:42.663Z,-1.20
2018-01-15T01:50:10.229Z,-1.10
2018-01-15T01:52:37.753Z,-1.00
2018-01-15T01:55:05.314Z,-1.00
2018-01-15T01:57:33.625Z,-1.10
2018-01-15T02:00:01.202Z,-1.10
2018-01-15T02:02:28.742Z,-1.20
2018-01-15T02:04:56.306Z,-1.20
2018-01-15T02:07:23.842Z,-1.20
2018-01-15T02:09:52.173Z,-1.10
2018-01-15T02:12:19.719Z,-1.10
2018-01-15T02:14:47.272Z,-1.10
2018-01-15T02:17:14.801Z,-1.20
2018-01-15T02:19:43.130Z,-1.40
2018-01-15T02:22:10.679Z,-1.40
2018-01-15T02:24:38.209Z,-1.40
2018-01-15T02:27:05.769Z,-1.40
2018-01-15T02:29:33.317Z,-1.40
2018-01-15T02:32:01.651Z,-1.20
2018-01-15T02:34:29.184Z,-1.20
2018-01-15T02:36:56.744Z,-1.10
2018-01-15T02:39:24.288Z,-1.00
2018-01-15T02:41:51.849Z,-0.90
2018-01-15T02:44:19.381Z,-0.70
2018-01-15T02:46:47.706Z,-0.70
2018-01-15T02:49:15.255Z,-0.70
2018-01-15T02:51:42.810Z,-0.70
2018-01-15T02:54:10.350Z,-0.80
2018-01-15T02:56:38.689Z,-0.70
2018-01-15T02:59:06.237Z,-0.80
2018-01-15T03:01:33.786Z,-0.70
2018-01-15T03:04:01.318Z,-0.80
2018-01-15T03:06:28.881Z,-0.80
2018-01-15T03:08:56.409Z,-0.90
2018-01-15T03:11:23.961Z,-1.00
2018-01-15T03:13:51.495Z,-1.10
2018-01-15T03:16:19.057Z,-1.10
2018-01-15T03:18:46.595Z,-1.20
2018-01-15T03:21:14.322Z,-1.10
2018-01-15T03:23:42.656Z,-1.10
2018-01-15T03:26:10.181Z,-1.20
2018-01-15T03:28:37.785Z,-1.20
2018-01-15T03:31:05.330Z,-1.10
2018-01-15T03:33:32.885Z,-1.10
2018-01-15T03:36:00.417Z,-1.10
2018-01-15T03:38:27.986Z,-1.10
2018-01-15T03:40:55.535Z,-1.10
2018-01-15T03:43:23.098Z,-1.10
2018-01-15T03:45:50.641Z,-1.00
2018-01-15T03:48:18.973Z,-1.00
2018-01-15T03:50:46.514Z,-1.00
2018-01-15T03:53:14.085Z,-0.90
2018-01-15T03:55:41.617Z,-0.90
2018-01-15T03:58:09.177Z,-0.90
2018-01-15T04:00:36.710Z,-0.80
2018-01-15T04:03:05.037Z,-0.80
2018-01-15T04:05:32.573Z,-0.90
2018-01-15T04:08:00.133Z,-0.80
2018-01-15T04:10:27.670Z,-0.90
2018-01-15T04:12:56.005Z,-0.90
2018-01-15T04:15:23.546Z,-0.90
2018-01-15T04:17:51.101Z,-0.90
2018-01-15T04:20:18.630Z,-0.90
2018-01-15T04:22:46.930Z,-0.90
2018-01-15T04:25:14.494Z,-0.90
2018-01-15T04:27:42.026Z,-0.90
2018-01-15T04:30:10.351Z,-0.90
2018-01-15T04:32:37.886Z,-0.90
2018-01-15T04:35:05.445Z,-0.90
2018-01-15T04:37:32.982Z,-0.90
2018-01-15T04:40:01.301Z,-0.90
2018-01-15T04:42:28.841Z,-0.90
2018-01-15T04:44:56.408Z,-0.90
2018-01-15T04:47:23.954Z,-0.90
2018-01-15T04:49:51.510Z,-0.90
2018-01-15T04:52:19.057Z,-0.80
2018-01-15T04:54:47.381Z,-0.70
2018-01-15T04:57:14.918Z,-0.80
2018-01-15T04:59:42.484Z,-0.70
2018-01-15T05:02:10.013Z,-0.70
2018-01-15T05:04:38.350Z,-0.60
2018-01-15T05:07:05.889Z,-0.60
2018-01-15T05:09:33.455Z,-0.50
2018-01-15T05:12:00.990Z,-0.50
2018-01-15T05:14:28.585Z,-0.40
2018-01-15T05:16:56.114Z,-0.40
2018-01-15T05:19:23.677Z,-0.40
2018-01-15T05:21:51.220Z,-0.50
2018-01-15T05:24:18.753Z,-0.50
2018-01-15T05:26:46.321Z,-0.50
2018-01-15T05:29:14.621Z,-0.30
2018-01-15T05:31:42.177Z,-0.30
2018-01-15T05:34:10.465Z,-0.20
2018-01-15T05:36:38.029Z,-0.30
2018-01-15T05:39:05.562Z,-0.10
2018-01-15T05:41:33.877Z,0.00
2018-01-15T05:44:01.397Z,0.00
2018-01-15T05:46:29.714Z,0.10
2018-01-15T05:48:57.233Z,0.00
2018-01-15T05:51:25.558Z,0.10
2018-01-15T05:53:53.091Z,0.10
2018-01-15T05:56:20.645Z,0.10
2018-01-15T05:58:48.964Z,0.20
2018-01-15T06:01:16.519Z,0.10
2018-01-15T06:03:44.069Z,0.30
2018-01-15T06:06:11.628Z,0.30
2018-01-15T06:08:39.150Z,0.30
2018-01-15T06:11:07.471Z,0.40
2018-01-15T06:13:34.998Z,0.40
2018-01-15T06:16:02.553Z,0.40
2018-01-15T06:18:30.858Z,0.50
2018-01-15T06:20:58.405Z,0.50
2018-01-15T06:23:25.958Z,0.50
2018-01-15T06:25:53.499Z,0.50
2018-01-15T06:28:21.817Z,0.60
2018-01-15T06:51:57.518Z,0.70
2018-01-15T06:54:25.058Z,0.80
2018-01-15T06:56:52.594Z,0.80
2018-01-15T06:59:20.919Z,0.80
2018-01-15T07:01:48.450Z,0.80
2018-01-15T07:04:16.001Z,0.80
2018-01-15T07:06:43.539Z,0.80
2018-01-15T07:09:11.093Z,0.80
2018-01-15T07:11:38.629Z,0.90
2018-01-15T07:14:06.177Z,0.80
2018-01-15T07:16:33.701Z,0.80
2018-01-15T07:19:01.249Z,0.90
2018-01-15T07:21:29.543Z,0.90
2018-01-15T07:23:57.106Z,0.90
2018-01-15T07:26:24.630Z,1.00
2018-01-15T07:28:52.187Z,1.00
2018-01-15T07:31:19.715Z,1.10
2018-01-15T07:33:47.277Z,1.10
2018-01-15T07:36:14.808Z,1.10
2018-01-15T07:38:42.366Z,1.10
2018-01-15T07:41:09.899Z,1.10
2018-01-15T07:43:38.232Z,1.20
2018-01-15T07:46:05.757Z,1.10
2018-01-15T07:48:33.314Z,1.10
2018-01-15T07:51:00.847Z,1.20
2018-01-15T07:53:28.374Z,1.20
2018-01-15T07:55:55.925Z,1.20
2018-01-15T07:58:23.466Z,1.20
2018-01-15T08:00:51.022Z,1.20
2018-01-15T08:03:18.554Z,1.20
2018-01-15T08:05:46.882Z,1.30
2018-01-15T08:08:14.414Z,1.30
2018-01-15T08:10:41.974Z,1.40
2018-01-15T08:13:09.501Z,1.40
2018-01-15T08:15:37.826Z,1.50
2018-01-15T08:18:05.358Z,1.50
2018-01-15T08:20:32.918Z,1.50
2018-01-15T08:23:00.459Z,1.50
2018-01-15T08:25:28.892Z,1.60
2018-01-15T08:27:56.521Z,1.60
2018-01-15T08:30:24.121Z,1.70
2018-01-15T08:32:51.713Z,1.70
2018-01-15T08:35:19.326Z,1.80
2018-01-15T08:37:46.898Z,1.80
2018-01-15T08:40:14.508Z,1.90
2018-01-15T08:42:42.863Z,2.00
2018-01-15T08:45:10.441Z,2.00
2018-01-15T08:47:37.989Z,2.10
2018-01-15T08:50:05.553Z,2.10
2018-01-15T08:52:33.943Z,2.20
2018-01-15T08:55:02.346Z,2.20
2018-01-15T08:57:30.682Z,2.30
2018-01-15T08:59:58.242Z,2.30
2018-01-15T09:02:25.920Z,2.50
2018-01-15T09:04:54.296Z,2.50
2018-01-15T09:07:21.854Z,2.50
2018-01-15T09:09:49.378Z,2.60
2018-01-15T09:12:16.926Z,2.60
2018-01-15T09:14:44.457Z,2.60
2018-01-15T09:17:12.014Z,2.70
2018-01-15T09:19:39.549Z,2.70
2018-01-15T09:22:07.097Z,2.70
2018-01-15T09:24:34.625Z,2.80
2018-01-15T09:27:02.179Z,2.80
2018-01-15T09:29:29.714Z,2.80
2018-01-15T09:31:58.029Z,2.90
2018-01-15T09:34:25.557Z,2.90
2018-01-15T09:36:53.118Z,3.00
2018-01-15T09:39:20.650Z,3.00
2018-01-15T09:41:48.202Z,3.00
2018-01-15T09:44:16.522Z,3.10
2018-01-15T09:46:44.086Z,3.10
2018-01-15T09:49:11.618Z,3.10
2018-01-15T09:51:39.938Z,3.10
2018-01-15T09:54:07.468Z,3.10
2018-01-15T09:56:35.003Z,3.10
2018-01-15T09:59:02.562Z,3.20
2018-01-15T10:01:30.086Z,3.30
2018-01-15T10:03:57.644Z,3.30
2018-01-15T10:06:25.186Z,3.30
2018-01-15T10:08:52.739Z,3.30
2018-01-15T10:11:20.263Z,3.40
2018-01-15T10:13:48.578Z,3.60
2018-01-15T10:16:16.105Z,3.60
2018-01-15T10:18:44.421Z,3.70
2018-01-15T10:21:11.960Z,3.70
2018-01-15T10:23:39.517Z,3.80
2018-01-15T10:26:07.054Z,3.80
2018-01-15T10:28:35.378Z,4.00
2018-01-15T10:31:02.902Z,3.90
2018-01-15T10:33:31.226Z,4.00
2018-01-15T10:35:58.758Z,4.00
2018-01-15T10:38:26.314Z,4.10
2018-01-15T10:40:53.854Z,4.20
2018-01-15T10:43:22.181Z,4.30
2018-01-15T10:45:49.707Z,4.30
2018-01-15T10:48:17.268Z,4.40
2018-01-15T10:50:44.794Z,4.40
2018-01-15T10:53:12.350Z,4.40
2018-01-15T10:55:39.878Z,4.50
2018-01-15T10:58:07.441Z,4.60
2018-01-15T11:00:40.583Z,4.80
2018-01-15T11:03:08.906Z,5.30
2018-01-15T11:05:36.434Z,5.30
2018-01-15T11:08:03.957Z,5.40
2018-01-15T11:10:31.529Z,5.50
2018-01-15T11:12:59.825Z,5.80
2018-01-15T11:15:27.378Z,5.70
2018-01-15T11:17:55.668Z,5.60
2018-01-15T11:20:23.227Z,5.60
2018-01-15T11:22:50.750Z,5.50
2018-01-15T11:25:18.309Z,5.50
2018-01-15T11:27:45.838Z,5.60
2018-01-15T11:30:13.398Z,5.70
2018-01-15T11:32:40.973Z,5.70
2018-01-15T11:35:08.501Z,5.80
2018-01-15T11:37:36.021Z,5.80
2018-01-15T11:40:04.353Z,5.80
2018-01-15T11:42:31.878Z,5.80
2018-01-15T11:44:59.429Z,5.80
2018-01-15T11:47:26.974Z,5.70
2018-01-15T11:49:55.294Z,5.60
2018-01-15T11:52:22.833Z,5.50
2018-01-15T11:54:50.389Z,5.60
2018-01-15T11:57:18.691Z,5.60
2018-01-15T11:59:46.214Z,5.60
2018-01-15T12:02:14.546Z,5.60
2018-01-15T12:04:42.077Z,5.60
2018-01-15T12:07:09.645Z,5.60
2018-01-15T12:09:37.170Z,5.70
2018-01-15T12:12:05.486Z,5.70
2018-01-15T12:14:33.034Z,5.70
2018-01-15T12:17:00.598Z,5.80
2018-01-15T12:19:28.135Z,5.90
2018-01-15T12:21:56.454Z,5.90
2018-01-15T12:24:23.987Z,5.90
2018-01-15T12:26:51.549Z,5.90
2018-01-15T12:29:19.082Z,6.00
2018-01-15T12:31:47.413Z,6.10
2018-01-15T12:34:14.938Z,6.10
2018-01-15T12:36:42.493Z,6.00
2018-01-15T12:39:10.026Z,6.10
2018-01-15T12:41:37.587Z,6.10
2018-01-15T12:44:05.118Z,6.10
2018-01-15T12:46:32.676Z,6.00
2018-01-15T12:49:00.202Z,6.00
2018-01-15T12:51:27.759Z,6.20
2018-01-15T12:53:55.298Z,6.30
2018-01-15T12:56:23.625Z,6.30
2018-01-15T12:58:51.153Z,6.30
2018-01-15T13:01:18.682Z,6.30
2018-01-15T13:03:46.237Z,6.40
2018-01-15T13:06:19.701Z,6.30
2018-01-15T13:09:08.178Z,6.30
2018-01-15T13:11:35.744Z,6.30
2018-01-15T13:14:03.297Z,6.30
2018-01-15T13:16:30.827Z,6.30
2018-01-15T13:18:58.382Z,6.20
2018-01-15T13:21:25.910Z,6.20
2018-01-15T13:23:54.232Z,6.20
2018-01-15T13:26:21.763Z,6.20
2018-01-15T13:28:49.330Z,6.20
2018-01-15T13:31:16.858Z,6.10
2018-01-15T13:33:45.174Z,5.80
2018-01-15T13:36:12.706Z,5.80
2018-01-15T13:38:40.275Z,5.80
2018-01-15T13:41:07.810Z,5.80
2018-01-15T13:43:36.126Z,5.80
2018-01-15T13:46:03.657Z,5.80
2018-01-15T13:48:31.217Z,5.70
2018-01-15T13:50:59.523Z,5.70
2018-01-15T13:53:27.097Z,5.60
2018-01-15T13:55:55.385Z,5.60
2018-01-15T13:58:22.970Z,5.60
2018-01-15T14:00:50.553Z,5.60
2018-01-15T14:03:18.079Z,5.60
2018-01-15T14:05:45.610Z,5.60
2018-01-15T14:08:13.173Z,5.60
2018-01-15T14:10:40.712Z,5.60
2018-01-15T14:13:08.276Z,5.60
2018-01-15T14:15:35.857Z,5.60
2018-01-15T14:18:03.393Z,5.60
2018-01-15T14:20:30.953Z,5.60
2018-01-15T14:22:58.479Z,5.60
2018-01-15T14:25:26.799Z,5.60
2018-01-15T14:27:54.332Z,5.60
2018-01-15T14:30:21.892Z,5.60
2018-01-15T14:32:49.426Z,5.60
2018-01-15T14:35:16.981Z,5.60
2018-01-15T14:37:44.517Z,5.60
2018-01-15T14:40:12.078Z,5.50
2018-01-15T14:42:39.608Z,5.50
2018-01-15T14:45:07.169Z,5.50
2018-01-15T14:47:34.709Z,5.50
2018-01-15T14:50:02.269Z,5.50
2018-01-15T14:52:29.811Z,5.60
2018-01-15T14:54:58.129Z,5.50
2018-01-15T14:57:25.665Z,5.50
2018-01-15T14:59:53.213Z,5.60
2018-01-15T15:02:21.522Z,5.50
2018-01-15T15:04:49.093Z,5.50
2018-01-15T15:07:16.621Z,5.60
2018-01-15T15:09:44.183Z,5.60
2018-01-15T15:12:11.718Z,5.50
2018-01-15T15:14:40.050Z,5.50
2018-01-15T15:17:07.581Z,5.50
2018-01-15T15:19:35.118Z,5.50
2018-01-15T15:22:03.442Z,5.50
2018-01-15T15:24:30.976Z,5.50
2018-01-15T15:26:58.521Z,5.50
2018-01-15T15:29:26.809Z,5.50
2018-01-15T15:31:54.364Z,5.50
2018-01-15T15:34:22.655Z,5.50
2018-01-15T15:36:50.212Z,5.50
2018-01-15T15:39:17.739Z,5.50
2018-01-15T15:41:45.298Z,5.50
2018-01-15T15:44:12.822Z,5.50
2018-01-15T15:46:40.410Z,5.50
2018-01-15T15:49:07.944Z,5.50
2018-01-15T15:51:36.257Z,5.50
2018-01-15T15:54:03.786Z,5.50
2018-01-15T15:56:31.338Z,5.50
2018-01-15T15:58:58.876Z,5.50
2018-01-15T16:01:26.435Z,5.50
2018-01-15T16:03:53.965Z,5.50
2018-01-15T16:06:22.289Z,5.60
2018-01-15T16:08:49.838Z,5.60
2018-01-15T16:11:17.392Z,5.60
2018-01-15T16:13:44.921Z,5.60
2018-01-15T16:16:20.923Z,5.40
2018-01-15T16:18:48.488Z,5.40
2018-01-15T16:21:16.042Z,5.40
2018-01-15T16:23:43.571Z,5.40
2018-01-15T16:26:11.106Z,5.30
2018-01-15T16:28:38.653Z,5.30
2018-01-15T16:31:06.180Z,5.30
2018-01-15T16:33:33.733Z,5.20
2018-01-15T16:36:01.311Z,5.20
2018-01-15T16:38:28.890Z,5.10
2018-01-15T16:40:56.429Z,5.10
2018-01-15T16:43:23.985Z,5.00
2018-01-15T16:45:51.544Z,4.90
2018-01-15T16:48:19.097Z,4.90
2018-01-15T16:50:46.629Z,4.90
2018-01-15T16:53:14.173Z,4.80
2018-01-15T16:55:42.474Z,4.70
2018-01-15T16:58:10.217Z,4.80
2018-01-15T17:00:38.517Z,4.70
2018-01-15T17:03:06.066Z,4.70
2018-01-15T17:05:33.601Z,4.60
2018-01-15T17:08:01.931Z,4.60
2018-01-15T17:10:29.462Z,4.60
2018-01-15T17:12:57.010Z,4.60
2018-01-15T17:15:25.298Z,4.60
2018-01-15T17:17:52.849Z,4.50
2018-01-15T17:20:21.151Z,4.50
2018-01-15T17:22:48.707Z,4.50
2018-01-15T17:25:16.238Z,4.50
2018-01-15T17:27:44.602Z,4.50
2018-01-15T17:30:12.159Z,4.40
2018-01-15T17:32:39.693Z,4.40
2018-01-15T17:35:07.255Z,4.40
2018-01-15T17:37:34.845Z,4.40
2018-01-15T17:40:02.365Z,4.40
2018-01-15T17:42:29.938Z,4.40
2018-01-15T17:44:57.475Z,4.40
2018-01-15T17:47:25.005Z,4.40
2018-01-15T17:49:53.323Z,4.30
2018-01-15T17:52:20.849Z,4.30
2018-01-15T17:54:48.407Z,4.30
2018-01-15T17:57:15.989Z,4.30
2018-01-15T17:59:43.548Z,4.30
2018-01-15T18:02:11.161Z,4.30
2018-01-15T18:04:39.506Z,4.20
2018-01-15T18:07:07.815Z,4.20
2018-01-15T18:09:35.378Z,4.20
2018-01-15T18:12:03.687Z,4.20
2018-01-15T18:14:31.249Z,4.20
2018-01-15T18:16:58.773Z,4.20
2018-01-15T18:19:27.101Z,4.20
2018-01-15T18:21:54.634Z,4.20
2018-01-15T18:24:22.167Z,4.20
2018-01-15T18:26:50.553Z,4.20
2018-01-15T18:29:18.046Z,4.10
2018-01-15T18:31:45.605Z,4.10
2018-01-15T18:34:13.138Z,4.10
2018-01-15T18:36:41.458Z,4.10
2018-01-15T18:39:08.982Z,4.10
2018-01-15T18:41:37.299Z,4.10
2018-01-15T18:44:04.822Z,4.10
2018-01-15T18:46:32.373Z,4.10
2018-01-15T18:49:00.663Z,4.10
2018-01-15T18:51:28.219Z,4.10
2018-01-15T18:53:55.749Z,4.20
2018-01-15T18:56:23.306Z,4.20
2018-01-15T18:58:50.843Z,4.20
2018-01-15T19:01:18.399Z,4.20
2018-01-15T19:03:45.925Z,4.20
2018-01-15T19:06:14.781Z,4.20
2018-01-15T19:08:42.306Z,4.30
2018-01-15T19:11:09.866Z,4.30
2018-01-15T19:13:37.416Z,4.30
2018-01-15T19:16:04.973Z,4.30
2018-01-15T19:18:32.493Z,4.30
2018-01-15T19:21:00.822Z,4.30
2018-01-15T19:23:28.346Z,4.30
2018-01-15T19:25:55.870Z,4.30
2018-01-15T19:28:23.426Z,4.30
2018-01-15T19:30:50.956Z,4.30
2018-01-15T19:33:18.515Z,4.40
2018-01-15T19:38:56.883Z,4.40
2018-01-15T19:41:24.909Z,4.40
2018-01-15T19:46:59.986Z,4.40
2018-01-15T19:49:33.146Z,4.40
2018-01-15T19:52:06.466Z,4.40
2018-01-15T19:54:40.013Z,4.40
2018-01-15T19:57:13.956Z,4.50
2018-01-15T19:59:47.065Z,4.50
2018-01-15T20:02:20.366Z,4.50
2018-01-15T20:04:53.494Z,4.40
2018-01-15T20:07:27.452Z,4.50
2018-01-15T20:10:00.739Z,4.50
2018-01-15T20:12:28.283Z,4.50
2018-01-15T20:14:55.810Z,4.50
2018-01-15T20:17:23.361Z,4.60
2018-01-15T20:19:50.914Z,4.50
2018-01-15T20:22:18.436Z,4.60
2018-01-15T20:24:45.978Z,4.60
2018-01-15T20:27:13.510Z,4.60
2018-01-15T20:29:41.829Z,4.60
2018-01-15T20:32:09.350Z,4.60
2018-01-15T20:34:37.672Z,4.60
2018-01-15T20:37:05.199Z,4.60
2018-01-15T20:39:32.754Z,4.60
2018-01-15T20:42:01.049Z,4.70
2018-01-15T20:44:28.605Z,4.70
2018-01-15T20:46:56.138Z,4.80
2018-01-15T20:49:23.700Z,4.80
2018-01-15T20:51:51.229Z,4.80
2018-01-15T20:54:18.784Z,4.80
2018-01-15T20:56:46.338Z,4.90
2018-01-15T20:59:13.890Z,4.80
2018-01-15T21:01:41.654Z,4.90
2018-01-15T21:04:09.561Z,4.90
2018-01-15T21:06:37.130Z,4.90
2018-01-15T21:09:07.622Z,4.90
2018-01-15T21:11:35.911Z,4.90
2018-01-15T21:14:03.458Z,4.90
2018-01-15T21:16:30.977Z,4.90
2018-01-15T21:18:59.290Z,4.90
2018-01-15T21:21:26.818Z,4.90
2018-01-15T21:23:54.345Z,5.00
2018-01-15T21:26:21.915Z,5.00
2018-01-15T21:28:50.205Z,5.00
2018-01-15T21:31:18.522Z,5.00
2018-01-15T21:33:46.041Z,5.00
2018-01-15T21:36:14.358Z,5.10
2018-01-15T21:38:41.890Z,5.00
2018-01-15T21:41:09.440Z,5.00
2018-01-15T21:43:37.723Z,5.00
2018-01-15T21:46:05.267Z,5.00
2018-01-15T21:48:33.558Z,5.10
2018-01-15T21:51:01.106Z,5.10
2018-01-15T21:53:29.404Z,5.10
2018-01-15T21:55:56.954Z,5.10
2018-01-15T21:58:24.486Z,5.10
2018-01-15T22:00:52.044Z,5.10
2018-01-15T22:03:20.392Z,5.20
2018-01-15T22:05:47.937Z,5.10
2018-01-15T22:08:15.468Z,5.10
2018-01-15T22:10:43.018Z,5.10
2018-01-15T22:13:11.311Z,5.10
2018-01-15T22:15:38.853Z,5.10
2018-01-15T22:18:07.146Z,5.10
2018-01-15T22:20:34.704Z,5.10
2018-01-15T22:23:02.237Z,5.10
2018-01-15T22:25:29.759Z,5.20
2018-01-15T22:27:57.315Z,5.10
2018-01-15T22:30:24.845Z,5.20
2018-01-15T22:32:52.399Z,5.20
2018-01-15T22:35:19.933Z,5.20
2018-01-15T22:37:47.480Z,5.20
2018-01-15T22:40:15.003Z,5.30
2018-01-15T22:42:42.549Z,5.30
2018-01-15T22:45:10.062Z,5.40
2018-01-15T22:47:37.626Z,5.30
2018-01-15T22:50:05.149Z,5.40
2018-01-15T22:52:32.696Z,5.40
2018-01-15T22:55:00.213Z,5.40
2018-01-15T22:57:28.534Z,5.50
2018-01-15T22:59:56.098Z,5.50
2018-01-15T23:02:23.662Z,5.50
2018-01-15T23:04:51.186Z,5.50
2018-01-15T23:07:19.494Z,5.60
2018-01-15T23:09:47.013Z,5.60
2018-01-15T23:12:15.327Z,5.60
2018-01-15T23:14:42.850Z,5.60
2018-01-15T23:17:11.165Z,5.60
2018-01-15T23:19:38.686Z,5.60
2018-01-15T23:22:06.998Z,5.70
2018-01-15T23:24:34.525Z,5.70
2018-01-15T23:27:02.814Z,5.70
2018-01-15T23:29:30.360Z,5.70
2018-01-15T23:31:58.649Z,5.80
2018-01-15T23:34:26.206Z,5.80
2018-01-15T23:36:54.494Z,5.80
2018-01-15T23:39:22.042Z,5.80
2018-01-15T23:41:49.563Z,5.90
2018-01-15T23:44:17.105Z,6.00
2018-01-15T23:46:44.621Z,5.90
2018-01-15T23:49:12.166Z,6.00
2018-01-15T23:51:40.479Z,6.10
2018-01-15T23:54:08.017Z,6.10
2018-01-15T23:56:35.546Z,6.10
2018-01-15T23:59:03.102Z,6.10
